Time;durP1;ratioP1;P1;durP2;ratioP2;P2;SDS_P1;SDS_P2;PMS_P1;PMS_P2;Temp;Humidity;BMP_temperature;BMP_pressure;BME280_temperature;BME280_humidity;BME280_pressure;Samples;Min_cycle;Max_cycle;Signal;HPM_P1;HPM_P2
2023/06/09 00:00:50;;;;;;;9.23;6.30;;;;;;;19.46;56.09;101261.56;5033127;28;20474;-56
2023/06/09 00:03:16;;;;;;;13.38;7.93;;;;;;;19.41;56.66;101262.75;5031982;28;20053;-55
2023/06/09 00:05:43;;;;;;;9.23;6.80;;;;;;;19.41;56.54;101262.75;5031741;28;20057;-55
2023/06/09 00:08:11;;;;;;;13.50;7.35;;;;;;;19.36;56.66;101258.72;5015216;28;20108;-55
2023/06/09 00:10:38;;;;;;;9.55;7.63;;;;;;;19.31;56.59;101255.53;5030812;28;21247;-56
2023/06/09 00:13:04;;;;;;;16.88;8.40;;;;;;;19.25;56.66;101265.72;5014984;28;20050;-56
2023/06/09 00:15:31;;;;;;;11.88;7.50;;;;;;;19.23;56.83;101259.63;5014758;28;20077;-56
2023/06/09 00:17:58;;;;;;;11.05;6.72;;;;;;;19.19;57.03;101263.50;5014820;28;20053;-56
2023/06/09 00:20:25;;;;;;;10.70;7.20;;;;;;;19.12;57.51;101266.75;5020608;28;20046;-55
2023/06/09 00:22:55;;;;;;;15.32;7.47;;;;;;;19.09;57.06;101259.78;5024836;28;20084;-55
2023/06/09 00:25:22;;;;;;;10.50;6.88;;;;;;;19.06;57.48;101265.34;5018100;28;20058;-55
2023/06/09 00:27:48;;;;;;;12.13;6.88;;;;;;;19.02;57.27;101267.41;5014738;28;20141;-55
2023/06/09 00:30:15;;;;;;;13.20;6.80;;;;;;;18.98;56.96;101265.06;5028453;28;20069;-55
2023/06/09 00:33:02;;;;;;;9.00;6.40;;;;;;;18.89;57.04;101259.41;5015335;28;20363;-55
2023/06/09 00:35:28;;;;;;;12.48;6.40;;;;;;;18.82;57.31;101266.16;5014515;28;20056;-56
2023/06/09 00:37:55;;;;;;;9.05;6.78;;;;;;;18.80;57.07;101257.41;5019350;28;20089;-56
2023/06/09 00:40:22;;;;;;;11.25;7.22;;;;;;;18.76;57.22;101261.25;5033414;28;20056;-55
2023/06/09 00:42:48;;;;;;;19.85;7.30;;;;;;;18.70;57.49;101261.69;5022380;28;20052;-55
2023/06/09 00:45:15;;;;;;;9.68;7.32;;;;;;;18.61;57.55;101257.00;5034178;28;20055;-56
2023/06/09 00:47:41;;;;;;;11.52;6.50;;;;;;;18.56;57.78;101259.16;5033086;28;20128;-55
2023/06/09 00:50:10;;;;;;;13.63;6.90;;;;;;;18.44;58.13;101264.41;5049910;28;20052;-55
2023/06/09 00:52:37;;;;;;;12.88;6.55;;;;;;;18.42;58.18;101254.78;5033977;28;20057;-55
2023/06/09 00:55:04;;;;;;;11.57;7.45;;;;;;;18.38;58.46;101256.81;5024979;28;20084;-56
2023/06/09 00:57:33;;;;;;;12.73;6.97;;;;;;;18.35;58.48;101273.94;5030585;28;20072;-56
2023/06/09 01:00:04;;;;;;;15.93;6.88;;;;;;;18.30;58.84;101264.53;5034124;28;20046;-56
2023/06/09 01:02:31;;;;;;;10.70;6.93;;;;;;;18.28;58.85;101269.13;5033794;28;20081;-56
2023/06/09 01:04:58;;;;;;;12.77;6.53;;;;;;;18.22;59.19;101272.25;5032509;28;20053;-56
2023/06/09 01:07:40;;;;;;;9.82;7.20;;;;;;;18.15;59.49;101272.66;5030801;28;20129;-56
2023/06/09 01:10:21;;;;;;;11.73;7.72;;;;;;;18.14;59.43;101268.28;5033718;28;20046;-55
2023/06/09 01:13:03;;;;;;;11.30;6.93;;;;;;;18.01;59.85;101267.41;5017240;28;20469;-56
2023/06/09 01:15:36;;;;;;;10.68;7.75;;;;;;;17.96;59.83;101274.88;5029647;28;20057;-55
2023/06/09 01:18:05;;;;;;;12.63;6.95;;;;;;;17.91;60.37;101271.69;5034001;28;20045;-56
2023/06/09 01:20:50;;;;;;;12.18;6.88;;;;;;;17.82;60.77;101269.59;5027513;28;20092;-55
2023/06/09 01:23:32;;;;;;;13.43;7.20;;;;;;;17.76;61.02;101270.88;5017792;28;20145;-56
2023/06/09 01:26:01;;;;;;;10.27;7.65;;;;;;;17.71;61.48;101279.19;5024321;28;20167;-56
2023/06/09 01:28:29;;;;;;;9.30;6.78;;;;;;;17.67;61.25;101272.38;5028377;28;20152;-56
2023/06/09 01:30:57;;;;;;;11.27;7.10;;;;;;;17.60;61.86;101276.38;5024653;28;20050;-55
2023/06/09 01:33:25;;;;;;;10.30;7.15;;;;;;;17.53;62.26;101275.09;5032055;28;20095;-55
2023/06/09 01:35:52;;;;;;;16.95;8.02;;;;;;;17.40;62.65;101272.38;5033182;28;20064;-56
2023/06/09 01:38:22;;;;;;;15.38;7.78;;;;;;;17.37;62.82;101270.75;5033229;28;20045;-56
2023/06/09 01:40:49;;;;;;;11.60;7.32;;;;;;;17.30;62.60;101274.78;5014711;28;20450;-56
2023/06/09 01:43:16;;;;;;;13.10;8.23;;;;;;;17.27;62.86;101272.31;5033092;28;20077;-55
2023/06/09 01:45:43;;;;;;;12.63;7.60;;;;;;;17.23;63.10;101276.16;5026782;28;20140;-55
2023/06/09 01:48:38;;;;;;;11.07;7.07;;;;;;;17.21;63.04;101276.28;5025198;28;20107;-55
2023/06/09 01:51:32;;;;;;;10.73;7.55;;;;;;;17.19;63.05;101277.31;5031777;28;20045;-56
2023/06/09 01:54:11;;;;;;;10.20;7.05;;;;;;;17.13;63.17;101267.03;5032143;28;20140;-56
2023/06/09 01:56:41;;;;;;;10.48;7.85;;;;;;;17.18;63.33;101267.56;5033032;28;20123;-56
2023/06/09 01:59:15;;;;;;;13.63;7.50;;;;;;;17.08;63.58;101264.66;5032047;28;20041;-55
2023/06/09 02:01:43;;;;;;;13.48;7.50;;;;;;;17.09;63.33;101260.19;5032699;28;20049;-56
2023/06/09 02:04:12;;;;;;;15.05;8.70;;;;;;;17.10;63.32;101264.53;5015058;28;20426;-55
2023/06/09 02:06:40;;;;;;;11.10;7.63;;;;;;;17.00;63.49;101272.28;5029218;28;20057;-55
2023/06/09 02:09:06;;;;;;;14.40;7.68;;;;;;;16.99;63.78;101260.78;5031825;28;20136;-55
2023/06/09 02:11:33;;;;;;;18.45;8.38;;;;;;;16.94;63.77;101262.88;5032781;28;20092;-56
2023/06/09 02:14:00;;;;;;;13.98;8.38;;;;;;;16.89;63.92;101265.00;5033685;28;20131;-55
2023/06/09 02:16:26;;;;;;;16.63;8.38;;;;;;;16.91;64.18;101263.06;5033843;28;20057;-55
2023/06/09 02:18:53;;;;;;;14.98;7.68;;;;;;;16.95;64.10;101264.59;5030331;28;20486;-55
2023/06/09 02:21:20;;;;;;;15.95;7.97;;;;;;;16.91;64.15;101263.06;5033290;28;20128;-56
2023/06/09 02:23:46;;;;;;;15.65;7.38;;;;;;;16.88;63.91;101263.28;5033055;28;20128;-55
2023/06/09 02:26:13;;;;;;;15.95;7.93;;;;;;;16.84;64.65;101261.72;5032464;28;20057;-56
2023/06/09 02:28:40;;;;;;;18.52;9.18;;;;;;;16.79;64.47;101261.19;5032692;28;20049;-55
2023/06/09 02:31:06;;;;;;;16.55;7.97;;;;;;;16.76;64.83;101256.03;5033317;28;20125;-55
2023/06/09 02:33:33;;;;;;;19.25;8.75;;;;;;;16.72;65.20;101254.50;5033660;28;20045;-56
2023/06/09 02:36:00;;;;;;;19.33;9.25;;;;;;;16.67;65.24;101255.66;5031330;28;20185;-56
2023/06/09 02:38:26;;;;;;;19.35;9.50;;;;;;;16.62;65.46;101257.72;5026574;28;20045;-55
2023/06/09 02:40:53;;;;;;;16.75;9.55;;;;;;;16.59;65.71;101257.97;5034519;28;20041;-56
2023/06/09 02:43:19;;;;;;;23.73;9.88;;;;;;;16.56;65.66;101258.16;5032244;28;20055;-57
2023/06/09 02:45:47;;;;;;;12.73;7.53;;;;;;;16.52;65.94;101253.94;5028604;28;20453;-56
2023/06/09 02:48:15;;;;;;;17.90;9.07;;;;;;;16.49;66.09;101255.00;5026828;28;20128;-57
2023/06/09 02:50:41;;;;;;;22.42;9.52;;;;;;;16.49;66.37;101256.78;5031945;28;20041;-56
2023/06/09 02:53:08;;;;;;;13.35;8.93;;;;;;;16.45;66.39;101256.13;5028698;28;20092;-55
2023/06/09 02:55:34;;;;;;;13.63;8.43;;;;;;;16.43;66.71;101267.84;5033860;28;20053;-55
2023/06/09 02:58:02;;;;;;;17.13;8.70;;;;;;;16.38;66.70;101261.94;5021211;28;20133;-55
2023/06/09 03:00:28;;;;;;;20.23;8.98;;;;;;;16.33;66.77;101268.44;5016664;28;20098;-55
2023/06/09 03:02:56;;;;;;;14.80;8.82;;;;;;;16.29;67.08;101266.88;5024324;28;20469;-56
2023/06/09 03:05:24;;;;;;;16.13;8.77;;;;;;;16.27;67.04;101271.47;5036484;28;20053;-55
2023/06/09 03:07:51;;;;;;;11.98;8.57;;;;;;;16.28;66.89;101270.53;5038015;28;20126;-56
2023/06/09 03:10:18;;;;;;;15.40;9.02;;;;;;;16.25;67.12;101270.72;5021355;28;20416;-56
2023/06/09 03:12:45;;;;;;;14.95;9.00;;;;;;;16.23;67.01;101269.97;5035534;28;20049;-55
2023/06/09 03:15:11;;;;;;;14.27;9.07;;;;;;;16.16;67.13;101276.59;5036476;28;20060;-56
2023/06/09 03:17:41;;;;;;;17.20;9.10;;;;;;;16.12;67.69;101272.41;5036187;28;20082;-55
2023/06/09 03:20:09;;;;;;;16.77;9.82;;;;;;;16.10;67.86;101276.97;5034624;28;20049;-55
2023/06/09 03:22:36;;;;;;;14.18;8.25;;;;;;;16.04;68.05;101278.22;5035729;28;20049;-56
2023/06/09 03:25:04;;;;;;;11.13;8.43;;;;;;;16.02;68.08;101274.78;5031788;28;20073;-56
2023/06/09 03:27:30;;;;;;;22.95;9.80;;;;;;;16.02;68.12;101280.13;5029537;28;20144;-54
2023/06/09 03:29:57;;;;;;;17.20;9.55;;;;;;;16.05;68.17;101276.38;5010152;28;20048;-56
2023/06/09 03:32:23;;;;;;;22.35;9.55;;;;;;;16.05;68.35;101279.06;5029019;28;20710;-55
2023/06/09 03:34:50;;;;;;;15.38;8.93;;;;;;;16.07;68.32;101279.81;5028622;28;20050;-55
2023/06/09 03:37:17;;;;;;;16.45;9.05;;;;;;;16.04;68.46;101280.03;5028694;28;20049;-55
2023/06/09 03:39:43;;;;;;;20.52;9.95;;;;;;;16.03;68.87;101280.97;5024031;28;20037;-55
2023/06/09 03:42:10;;;;;;;15.90;9.15;;;;;;;16.00;69.13;101281.16;5026403;28;20057;-56
2023/06/09 03:44:37;;;;;;;14.05;9.13;;;;;;;16.00;69.00;101287.31;5045049;28;20080;-56
2023/06/09 03:47:04;;;;;;;15.93;9.80;;;;;;;16.00;69.18;101286.47;5030190;28;20526;-55
2023/06/09 03:49:31;;;;;;;17.48;10.88;;;;;;;16.03;68.72;101280.97;5010984;28;20049;-55
2023/06/09 03:51:58;;;;;;;14.77;9.10;;;;;;;16.06;68.84;101291.44;5023984;28;20067;-55
2023/06/09 03:54:24;;;;;;;15.90;10.00;;;;;;;16.02;68.92;101279.25;5029865;28;20118;-55
2023/06/09 03:56:51;;;;;;;21.02;10.35;;;;;;;16.00;68.64;101287.31;5026287;28;20046;-56
2023/06/09 03:59:18;;;;;;;23.08;10.30;;;;;;;16.05;69.06;101289.72;5027874;28;20073;-55
2023/06/09 04:01:44;;;;;;;18.42;9.32;;;;;;;16.05;68.81;101284.38;5022603;28;20049;-56
2023/06/09 04:04:11;;;;;;;12.48;9.88;;;;;;;16.04;68.70;101277.38;5026426;28;20053;-56
2023/06/09 04:06:38;;;;;;;15.73;9.07;;;;;;;16.04;68.82;101283.53;5023931;28;20140;-56
2023/06/09 04:09:05;;;;;;;21.20;11.15;;;;;;;16.09;68.56;101285.94;5024292;28;20053;-56
2023/06/09 04:11:32;;;;;;;14.60;8.95;;;;;;;16.11;68.21;101281.38;5037229;28;20080;-56
2023/06/09 04:13:59;;;;;;;18.02;9.57;;;;;;;16.14;68.24;101279.34;5022949;28;20061;-56
2023/06/09 04:16:26;;;;;;;18.42;9.38;;;;;;;16.21;67.62;101279.84;5025599;28;20057;-56
2023/06/09 04:18:53;;;;;;;25.90;9.45;;;;;;;16.21;67.45;101282.50;5022356;28;20041;-56
2023/06/09 04:21:20;;;;;;;20.73;9.15;;;;;;;16.23;67.82;101277.97;5020739;28;20046;-57
2023/06/09 04:23:47;;;;;;;19.00;10.27;;;;;;;16.23;67.74;101280.63;5023491;28;20061;-56
2023/06/09 04:26:14;;;;;;;17.30;9.73;;;;;;;16.27;66.82;101279.47;5021659;28;20061;-56
2023/06/09 04:28:41;;;;;;;17.77;8.98;;;;;;;16.36;67.29;101278.03;5023965;28;20045;-56
2023/06/09 04:31:08;;;;;;;12.75;9.48;;;;;;;16.41;66.79;101280.44;5022227;28;20044;-56
2023/06/09 04:33:36;;;;;;;17.38;9.43;;;;;;;16.38;67.11;101278.81;5022334;28;20060;-56
2023/06/09 04:36:06;;;;;;;38.05;9.43;;;;;;;16.45;66.71;101284.63;5024226;28;20049;-56
2023/06/09 04:38:33;;;;;;;23.77;9.33;;;;;;;16.48;66.08;101287.13;5023177;28;20060;-56
2023/06/09 04:41:01;;;;;;;15.23;9.02;;;;;;;16.53;65.74;101285.03;5022326;28;20497;-56
2023/06/09 04:43:29;;;;;;;29.27;10.75;;;;;;;16.58;65.46;101279.41;5021653;28;20580;-56
2023/06/09 04:45:57;;;;;;;19.08;8.40;;;;;;;16.57;65.02;101275.00;5024333;28;20049;-56
2023/06/09 04:48:23;;;;;;;17.38;8.95;;;;;;;16.55;64.00;101266.25;5023442;28;20057;-56
2023/06/09 04:50:50;;;;;;;10.77;7.60;;;;;;;16.60;63.36;101280.16;5020852;28;20046;-57
2023/06/09 04:53:19;;;;;;;26.77;8.93;;;;;;;16.70;61.98;101276.78;5024406;28;20053;-56
2023/06/09 04:55:46;;;;;;;14.68;7.47;;;;;;;16.76;61.86;101269.38;5024033;28;20054;-57
2023/06/09 04:58:15;;;;;;;12.60;7.85;;;;;;;16.82;61.40;101276.97;5019987;28;20053;-58
2023/06/09 05:00:42;;;;;;;12.18;6.82;;;;;;;16.85;60.93;101279.47;5017179;28;20060;-56
2023/06/09 05:03:08;;;;;;;11.90;6.88;;;;;;;16.96;60.53;101279.66;5023641;28;20124;-57
2023/06/09 05:05:35;;;;;;;14.60;8.15;;;;;;;17.03;60.56;101267.63;5023719;28;20458;-56
2023/06/09 05:08:04;;;;;;;11.45;7.05;;;;;;;17.03;59.29;101277.44;5020988;28;20058;-57
2023/06/09 05:10:31;;;;;;;13.55;8.02;;;;;;;17.19;58.49;101277.31;5023713;28;20049;-56
2023/06/09 05:12:57;;;;;;;9.50;5.85;;;;;;;17.39;55.28;101267.97;5027410;28;20055;-56
2023/06/09 05:15:26;;;;;;;11.23;6.43;;;;;;;17.47;55.08;101270.16;5024690;28;20080;-56
2023/06/09 05:17:52;;;;;;;12.05;5.93;;;;;;;17.55;54.00;101265.16;5024335;28;20458;-57
2023/06/09 05:20:19;;;;;;;10.52;6.70;;;;;;;17.64;53.96;101269.88;5023835;28;20045;-56
2023/06/09 05:22:46;;;;;;;11.27;5.72;;;;;;;17.70;53.08;101272.13;5023965;28;20083;-56
2023/06/09 05:25:16;;;;;;;16.63;7.00;;;;;;;17.77;52.80;101269.94;5025157;28;20479;-56
2023/06/09 05:27:43;;;;;;;;;;;;;;;17.82;52.73;101272.25;5021132;28;20045;-56
2023/06/09 05:30:10;;;;;;;7.63;5.20;;;;;;;17.87;51.46;101268.34;5021523;28;19921;-56
2023/06/09 05:32:36;;;;;;;8.70;4.45;;;;;;;17.91;50.62;101274.34;5023065;28;20132;-56
2023/06/09 05:35:03;;;;;;;9.55;4.65;;;;;;;18.04;50.10;101280.56;5022193;28;20061;-56
2023/06/09 05:37:30;;;;;;;10.20;5.05;;;;;;;18.17;48.24;101281.41;5018959;28;20045;-56
2023/06/09 05:39:56;;;;;;;9.93;4.40;;;;;;;18.29;46.69;101286.88;5021066;28;20055;-56
2023/06/09 05:42:23;;;;;;;8.38;4.03;;;;;;;18.47;43.76;101282.94;5021019;28;20340;-56
2023/06/09 05:44:49;;;;;;;10.57;4.10;;;;;;;18.64;43.49;101278.22;5020102;28;20053;-55
2023/06/09 05:47:16;;;;;;;6.07;3.72;;;;;;;18.75;43.57;101286.34;5021728;28;20053;-57
2023/06/09 05:49:42;;;;;;;11.50;4.22;;;;;;;18.81;42.21;101288.53;5025074;28;20049;-56
2023/06/09 05:52:09;;;;;;;10.40;3.53;;;;;;;18.91;41.43;101290.59;5024072;28;20077;-56
2023/06/09 05:54:36;;;;;;;7.70;4.20;;;;;;;19.01;42.08;101291.63;5023403;28;20053;-55
2023/06/09 05:57:03;;;;;;;6.00;3.38;;;;;;;19.09;42.42;101299.97;5024077;28;20069;-56
2023/06/09 05:59:32;;;;;;;4.60;3.17;;;;;;;19.21;39.38;101288.38;5018441;28;20168;-56
2023/06/09 06:02:00;;;;;;;9.95;3.47;;;;;;;19.30;39.32;101294.00;5022352;28;20099;-56
2023/06/09 06:04:27;;;;;;;6.00;3.58;;;;;;;19.46;38.95;101307.13;5025275;28;20046;-56
2023/06/09 06:06:55;;;;;;;8.98;3.70;;;;;;;19.60;38.55;101293.56;5023408;28;20041;-56
2023/06/09 06:09:21;;;;;;;14.43;4.53;;;;;;;19.72;39.45;101297.13;5024053;28;20056;-57
2023/06/09 06:11:48;;;;;;;7.50;4.22;;;;;;;19.76;38.80;101293.25;5039545;28;20454;-56
2023/06/09 06:14:14;;;;;;;6.13;3.20;;;;;;;19.86;39.03;101293.44;5003708;28;20137;-57
2023/06/09 06:16:41;;;;;;;9.45;4.40;;;;;;;19.97;38.35;101298.81;5022621;28;20103;-56
2023/06/09 06:19:08;;;;;;;11.10;4.18;;;;;;;20.03;37.63;101300.19;5020530;28;20046;-57
2023/06/09 06:21:37;;;;;;;8.95;3.42;;;;;;;20.05;37.19;101298.25;5023239;28;20453;-55
2023/06/09 06:24:04;;;;;;;8.32;3.58;;;;;;;20.16;37.13;101290.22;5022621;28;20046;-58
2023/06/09 06:26:30;;;;;;;10.00;3.75;;;;;;;20.25;36.72;101294.00;5017463;28;20046;-56
2023/06/09 06:28:57;;;;;;;8.40;3.20;;;;;;;20.31;34.56;101305.13;5023553;28;20055;-55
2023/06/09 06:31:23;;;;;;;7.82;3.78;;;;;;;20.31;35.14;101298.91;5021348;28;20050;-55
2023/06/09 06:33:50;;;;;;;8.10;3.38;;;;;;;20.33;35.23;101303.16;5022547;28;20064;-55
2023/06/09 06:36:21;;;;;;;9.13;3.65;;;;;;;20.34;35.41;101298.66;5024756;28;20073;-55
2023/06/09 06:38:48;;;;;;;8.30;3.50;;;;;;;20.42;35.10;101298.06;5023933;28;20049;-55
2023/06/09 06:41:14;;;;;;;8.35;3.20;;;;;;;20.44;35.66;101305.00;5022375;28;20446;-55
2023/06/09 06:43:42;;;;;;;10.57;3.65;;;;;;;20.54;35.14;101313.19;5017393;28;20054;-56
2023/06/09 06:46:11;;;;;;;12.68;3.55;;;;;;;20.64;34.51;101306.13;5025509;28;20081;-55
2023/06/09 06:48:40;;;;;;;12.90;4.00;;;;;;;20.72;35.46;101303.69;5024087;28;20054;-55
2023/06/09 06:51:07;;;;;;;8.27;3.63;;;;;;;20.84;34.67;101307.25;5023122;28;20386;-55
2023/06/09 06:53:37;;;;;;;15.80;3.83;;;;;;;21.00;34.36;101306.84;5021316;28;20136;-56
2023/06/09 06:56:05;;;;;;;11.68;4.32;;;;;;;21.08;33.59;101309.75;5020200;28;20148;-56
2023/06/09 06:58:31;;;;;;;8.75;3.25;;;;;;;21.23;33.53;101306.81;5022442;28;20456;-55
2023/06/09 07:00:58;;;;;;;16.77;4.35;;;;;;;21.24;34.29;101308.53;5020683;28;20042;-55
2023/06/09 07:03:25;;;;;;;7.10;3.67;;;;;;;21.19;34.73;101306.22;5024195;28;20050;-57
2023/06/09 07:05:53;;;;;;;12.05;4.53;;;;;;;21.26;34.52;101307.41;5022250;28;20120;-57
2023/06/09 07:08:19;;;;;;;8.85;3.92;;;;;;;21.35;34.59;101311.19;5020718;28;20503;-56
2023/06/09 07:10:46;;;;;;;7.68;3.17;;;;;;;21.39;34.96;101304.56;5024730;28;20179;-55
2023/06/09 07:13:13;;;;;;;6.90;3.92;;;;;;;21.60;34.89;101314.56;5022697;28;20041;-56
2023/06/09 07:15:39;;;;;;;8.80;4.32;;;;;;;21.76;34.73;101314.97;5023138;28;20124;-56
2023/06/09 07:18:06;;;;;;;18.67;7.88;;;;;;;21.85;35.03;101312.50;5024157;28;20068;-55
2023/06/09 07:20:33;;;;;;;11.85;3.80;;;;;;;21.89;35.09;101313.94;5020228;28;20046;-55
2023/06/09 07:23:00;;;;;;;6.47;3.45;;;;;;;21.97;35.25;101316.81;5023066;28;20462;-56
2023/06/09 07:25:26;;;;;;;6.15;3.25;;;;;;;21.97;34.65;101319.50;5022930;28;20056;-55
2023/06/09 07:27:53;;;;;;;8.55;3.60;;;;;;;22.15;34.85;101322.47;5024025;28;20132;-56
2023/06/09 07:30:19;;;;;;;11.40;4.03;;;;;;;22.36;34.77;101314.41;5023222;28;20087;-56
2023/06/09 07:32:47;;;;;;;17.30;3.78;;;;;;;22.26;33.92;101313.47;5027119;28;20140;-56
2023/06/09 07:35:13;;;;;;;9.23;3.72;;;;;;;22.26;34.59;101314.31;5023345;28;20057;-56
2023/06/09 07:37:42;;;;;;;26.33;4.68;;;;;;;22.10;34.43;101322.88;5024567;28;20046;-56
2023/06/09 07:40:09;;;;;;;16.38;4.63;;;;;;;22.12;34.97;101323.59;5004532;28;20045;-56
2023/06/09 07:42:47;;;;;;;10.00;3.40;;;;;;;22.36;34.76;101314.41;5026822;28;20049;-56
2023/06/09 07:45:13;;;;;;;7.28;3.78;;;;;;;22.49;34.35;101314.19;5024078;28;20060;-56
2023/06/09 07:47:40;;;;;;;6.78;4.05;;;;;;;22.75;34.18;101319.13;5025577;28;20049;-56
2023/06/09 07:50:08;;;;;;;5.78;3.90;;;;;;;23.01;34.10;101316.81;5025026;28;20050;-56
2023/06/09 07:52:38;;;;;;;8.98;3.85;;;;;;;23.03;33.72;101314.81;5023938;28;20487;-56
2023/06/09 07:55:06;;;;;;;13.48;4.07;;;;;;;23.20;33.70;101316.06;5026556;28;20054;-56
2023/06/09 07:57:40;;;;;;;10.05;3.63;;;;;;;23.40;33.14;101323.16;5024489;28;20132;-56
2023/06/09 08:00:08;;;;;;;12.05;4.13;;;;;;;23.38;33.32;101313.53;5023022;28;20504;-56
2023/06/09 08:02:40;;;;;;;10.80;4.35;;;;;;;23.36;32.86;101310.97;5018799;28;20054;-56
2023/06/09 08:05:07;;;;;;;11.82;4.35;;;;;;;23.44;33.25;101318.34;5025299;28;20053;-56
2023/06/09 08:07:34;;;;;;;7.00;3.55;;;;;;;23.46;33.10;101316.38;5027373;28;20127;-56
2023/06/09 08:10:01;;;;;;;10.93;4.22;;;;;;;23.58;32.43;101317.94;5023807;28;20079;-56
2023/06/09 08:12:27;;;;;;;11.95;4.30;;;;;;;23.62;32.79;101313.97;5026322;28;20128;-55
2023/06/09 08:14:54;;;;;;;8.48;4.13;;;;;;;23.67;32.57;101318.06;5024015;28;20128;-56
2023/06/09 08:17:20;;;;;;;8.45;4.13;;;;;;;23.72;33.12;101307.69;5023723;28;20095;-55
2023/06/09 08:19:48;;;;;;;8.75;4.28;;;;;;;23.95;32.36;101306.44;5026664;28;20365;-56
2023/06/09 08:22:15;;;;;;;6.55;3.45;;;;;;;24.02;32.53;101313.97;5026309;28;20461;-55
2023/06/09 08:24:42;;;;;;;9.43;4.60;;;;;;;24.10;32.51;101308.72;5027426;28;20132;-56
2023/06/09 08:27:09;;;;;;;10.05;4.50;;;;;;;24.12;32.29;101309.41;5023979;28;20100;-55
2023/06/09 08:29:36;;;;;;;8.52;3.70;;;;;;;24.19;32.21;101310.50;5023683;28;20141;-55
2023/06/09 08:32:02;;;;;;;7.53;3.78;;;;;;;24.10;33.02;101314.94;5026118;28;20435;-55
2023/06/09 08:34:29;;;;;;;12.40;3.83;;;;;;;24.23;32.04;101309.25;5026170;28;20053;-55
2023/06/09 09:08:03;;;;;;;8.10;4.15;;;;;;;25.46;31.77;101305.41;4986209;28;20066;-56
2023/06/09 09:10:31;;;;;;;16.10;4.43;;;;;;;25.52;31.56;101311.19;5010344;28;20058;-56
2023/06/09 09:12:59;;;;;;;9.90;3.97;;;;;;;25.45;32.03;101309.13;5012018;28;20050;-56
2023/06/09 09:15:25;;;;;;;11.23;4.72;;;;;;;25.50;31.33;101313.22;5006567;28;20180;-56
2023/06/09 09:17:52;;;;;;;8.63;4.43;;;;;;;25.53;31.02;101307.50;5011423;28;20080;-56
2023/06/09 09:20:19;;;;;;;7.07;3.85;;;;;;;25.82;30.87;101305.38;5012774;28;20594;-56
2023/06/09 09:22:50;;;;;;;12.93;4.78;;;;;;;25.95;31.90;101313.09;5012093;28;20509;-56
2023/06/09 09:25:22;;;;;;;6.95;4.43;;;;;;;26.33;31.12;101310.19;5012594;28;20112;-56
2023/06/09 09:28:01;;;;;;;7.63;4.40;;;;;;;26.27;31.91;101318.94;5004994;28;20084;-56
2023/06/09 09:30:40;;;;;;;11.10;4.53;;;;;;;26.12;31.45;101308.72;5011984;28;20073;-57
2023/06/09 09:33:11;;;;;;;8.35;4.38;;;;;;;26.32;31.90;101303.94;5011477;28;20104;-56
2023/06/09 09:35:39;;;;;;;7.00;4.80;;;;;;;25.95;31.24;101313.09;5012723;28;20081;-56
2023/06/09 09:38:21;;;;;;;15.35;4.18;;;;;;;25.82;31.76;101313.50;5012549;28;20046;-56
2023/06/09 09:40:50;;;;;;;10.52;4.97;;;;;;;25.86;32.37;101308.66;5009039;28;20085;-56
2023/06/09 09:43:18;;;;;;;15.45;4.80;;;;;;;25.83;33.14;101309.81;5012607;28;20045;-56
2023/06/09 09:45:47;;;;;;;9.00;4.55;;;;;;;25.81;33.36;101311.81;5011784;28;20078;-56
2023/06/09 09:48:16;;;;;;;8.82;4.72;;;;;;;25.65;33.19;101311.69;5010646;28;20078;-56
2023/06/09 09:50:48;;;;;;;10.48;5.32;;;;;;;25.59;33.76;101306.88;5013239;28;20053;-57
2023/06/09 09:53:15;;;;;;;9.05;5.13;;;;;;;26.08;32.99;101301.06;5012974;28;20145;-56
2023/06/09 09:55:45;;;;;;;10.40;4.60;;;;;;;26.09;32.70;101300.03;5013072;28;20068;-56
2023/06/09 09:58:14;;;;;;;9.45;4.30;;;;;;;26.26;33.05;101298.28;5011247;28;20056;-56
2023/06/09 10:00:43;;;;;;;11.93;4.38;;;;;;;26.63;31.89;101305.25;5012256;28;20188;-56
2023/06/09 10:03:18;;;;;;;10.38;4.70;;;;;;;26.64;32.01;101301.56;5012095;28;20124;-57
2023/06/09 10:05:47;;;;;;;9.85;4.32;;;;;;;26.84;30.81;101308.47;5010136;28;20344;-57
2023/06/09 10:08:27;;;;;;;7.05;4.70;;;;;;;26.61;30.33;101301.88;5022117;28;20049;-57
2023/06/09 10:10:59;;;;;;;18.10;5.18;;;;;;;26.76;30.54;101307.56;5028171;28;20469;-57
2023/06/09 10:13:27;;;;;;;6.97;3.90;;;;;;;26.94;29.63;101300.19;5032643;28;20053;-57
2023/06/09 10:15:55;;;;;;;6.70;4.07;;;;;;;27.17;29.68;101303.13;5030347;28;20132;-56
2023/06/09 10:18:22;;;;;;;6.53;3.53;;;;;;;27.44;29.40;101293.03;5032343;28;20050;-57
2023/06/09 10:20:51;;;;;;;7.90;3.58;;;;;;;27.63;29.08;101290.00;5032493;28;20656;-56
2023/06/09 10:23:19;;;;;;;8.93;4.05;;;;;;;27.20;29.85;101294.66;5030878;28;20149;-56
2023/06/09 10:25:48;;;;;;;7.65;4.55;;;;;;;27.65;29.41;101296.09;5032047;28;20488;-56
2023/06/09 10:28:18;;;;;;;15.43;4.82;;;;;;;27.61;29.14;101289.31;5031756;28;20430;-57
2023/06/09 10:30:47;;;;;;;6.28;4.05;;;;;;;27.81;29.34;101294.41;5013483;28;20456;-56
2023/06/09 10:33:26;;;;;;;7.60;4.05;;;;;;;27.58;29.48;101289.66;5031859;28;20118;-57
2023/06/09 10:35:57;;;;;;;8.57;4.55;;;;;;;27.55;29.22;101290.00;5032053;28;20140;-56
2023/06/09 10:38:30;;;;;;;9.32;4.18;;;;;;;27.36;29.66;101284.88;5032556;28;20195;-56
2023/06/09 10:41:10;;;;;;;9.80;4.03;;;;;;;27.42;29.59;101279.63;5030974;28;20045;-56
2023/06/09 10:44:16;;;;;;;8.68;4.20;;;;;;;27.46;29.61;101282.84;5032152;28;20091;-56
2023/06/09 10:46:45;;;;;;;13.63;4.38;;;;;;;27.61;29.54;101283.03;5032130;28;20050;-56
2023/06/09 10:49:25;;;;;;;12.18;4.35;;;;;;;27.97;28.83;101283.56;5030662;28;20077;-56
2023/06/09 10:51:52;;;;;;;7.20;4.22;;;;;;;28.17;27.62;101280.47;5031696;28;20240;-56
2023/06/09 10:54:23;;;;;;;13.63;4.22;;;;;;;29.01;26.85;101275.41;5031643;28;20046;-56
2023/06/09 10:56:55;;;;;;;10.77;3.50;;;;;;;28.82;27.05;101275.84;5032115;28;20046;-57
2023/06/09 10:59:25;;;;;;;11.77;4.65;;;;;;;29.39;26.45;101267.38;5030875;28;20136;-56
2023/06/09 11:02:01;;;;;;;5.20;3.25;;;;;;;29.60;24.91;101274.00;5032492;28;20049;-56
2023/06/09 11:04:52;;;;;;;6.47;2.97;;;;;;;29.50;24.31;101262.53;5035483;28;20061;-56
2023/06/09 11:07:20;;;;;;;5.75;2.80;;;;;;;31.55;22.86;101268.31;5032525;28;20084;-56
2023/06/09 11:09:47;;;;;;;5.95;3.30;;;;;;;32.42;22.64;101265.38;5034334;28;20057;-56
2023/06/09 11:12:38;;;;;;;5.78;3.10;;;;;;;33.09;20.60;101259.13;5035828;28;20049;-56
2023/06/09 11:15:07;;;;;;;9.25;4.30;;;;;;;33.09;21.38;101256.41;5035465;28;20138;-56
2023/06/09 11:17:37;;;;;;;4.13;2.65;;;;;;;32.23;21.21;101258.75;5033255;28;20084;-56
2023/06/09 11:20:10;;;;;;;4.35;3.10;;;;;;;32.68;20.99;101256.47;5032023;28;20053;-56
2023/06/09 11:22:41;;;;;;;5.57;3.47;;;;;;;32.53;20.96;101253.84;5035374;28;20091;-56
2023/06/09 11:25:08;;;;;;;5.07;3.17;;;;;;;31.33;22.71;101252.94;5035357;28;20049;-56
2023/06/09 11:27:35;;;;;;;4.93;2.72;;;;;;;31.69;21.70;101252.03;5034251;28;20045;-56
2023/06/09 11:30:15;;;;;;;5.20;3.08;;;;;;;31.83;21.51;101248.38;5035135;28;20148;-56
2023/06/09 11:33:01;;;;;;;8.40;2.92;;;;;;;33.29;21.29;101236.44;5034961;28;20045;-56
2023/06/09 11:35:30;;;;;;;5.35;3.35;;;;;;;34.11;20.39;101234.31;5034973;28;20049;-56
2023/06/09 11:38:10;;;;;;;4.93;3.00;;;;;;;33.38;19.89;101232.47;5032527;28;20045;-56
2023/06/09 11:40:49;;;;;;;7.65;3.10;;;;;;;33.35;20.69;101232.88;5035358;28;20059;-57
2023/06/09 11:43:19;;;;;;;9.52;3.42;;;;;;;33.19;21.49;101231.38;5034792;28;20147;-56
2023/06/09 11:45:47;;;;;;;5.60;2.80;;;;;;;33.16;21.17;101231.81;5032547;28;20063;-56
2023/06/09 11:48:15;;;;;;;8.18;3.67;;;;;;;34.11;20.50;101228.00;5035017;28;20057;-56
2023/06/09 11:50:46;;;;;;;7.30;3.72;;;;;;;34.12;20.64;101233.28;5034781;28;20411;-56
2023/06/09 11:53:16;;;;;;;6.38;3.25;;;;;;;35.69;19.21;101226.53;5034519;28;20045;-56
2023/06/09 11:55:44;;;;;;;7.90;3.35;;;;;;;36.74;18.24;101219.25;5034398;28;20419;-56
2023/06/09 11:58:12;;;;;;;4.57;3.10;;;;;;;36.36;18.49;101221.19;5034568;28;20136;-56